createdAt,value
2023-03-26T00:00:05.563Z,9.18
2023-03-26T00:02:35.213Z,6.60
2023-03-26T00:05:05.404Z,10.57
2023-03-26T00:07:36.452Z,6.38
2023-03-26T00:10:07.066Z,6.00
2023-03-26T00:12:36.472Z,7.05
2023-03-26T00:15:06.750Z,7.53
2023-03-26T00:17:36.087Z,5.30
2023-03-26T00:20:08.391Z,5.65
2023-03-26T00:22:39.274Z,7.38
2023-03-26T00:25:09.976Z,6.35
2023-03-26T00:27:39.497Z,6.35
2023-03-26T00:30:10.958Z,5.88
2023-03-26T00:32:40.414Z,5.05
2023-03-26T00:35:11.243Z,5.75
2023-03-26T00:37:43.493Z,6.05
2023-03-26T00:40:14.279Z,9.23
2023-03-26T00:42:43.684Z,12.32
2023-03-26T00:45:13.979Z,11.00
2023-03-26T00:50:16.837Z,7.10
2023-03-26T00:52:47.119Z,5.28
2023-03-26T00:55:17.686Z,4.72
2023-03-26T00:57:47.144Z,5.57
2023-03-26T01:00:21.275Z,7.38
2023-03-26T01:02:50.689Z,7.68
2023-03-26T01:05:54.109Z,7.50
2023-03-26T01:08:33.003Z,7.60
2023-03-26T01:11:14.461Z,7.32
2023-03-26T01:13:50.171Z,10.68
2023-03-26T01:16:27.781Z,9.02
2023-03-26T01:18:58.948Z,10.43
2023-03-26T01:21:34.648Z,10.90
2023-03-26T01:24:07.712Z,7.18
2023-03-26T01:27:20.412Z,10.35
2023-03-26T01:29:56.952Z,9.63
2023-03-26T01:32:49.797Z,9.77
2023-03-26T01:35:34.253Z,13.50
2023-03-26T01:38:23.453Z,10.77
2023-03-26T01:41:02.552Z,23.77
2023-03-26T01:43:40.259Z,8.00
2023-03-26T01:46:13.538Z,8.75
2023-03-26T01:48:45.517Z,8.43
2023-03-26T01:51:28.165Z,8.93
2023-03-26T01:53:59.551Z,9.07
2023-03-26T01:56:40.511Z,11.07
2023-03-26T01:59:28.989Z,7.05
2023-03-26T02:02:15.657Z,6.30
2023-03-26T02:04:55.882Z,6.72
2023-03-26T02:07:34.785Z,6.35
2023-03-26T02:10:10.650Z,7.15
2023-03-26T02:12:41.250Z,7.75
2023-03-26T02:15:12.799Z,10.45
2023-03-26T02:17:43.581Z,8.60
2023-03-26T02:20:15.396Z,9.55
2023-03-26T02:22:46.166Z,5.93
2023-03-26T02:25:19.422Z,8.05
2023-03-26T02:27:50.541Z,6.97
2023-03-26T02:30:25.962Z,8.90
2023-03-26T02:32:59.567Z,9.57
2023-03-26T02:35:29.137Z,8.15
2023-03-26T02:37:58.494Z,10.85
2023-03-26T02:40:27.909Z,9.10
2023-03-26T02:42:57.314Z,8.65
2023-03-26T02:45:26.923Z,14.30
2023-03-26T02:47:57.792Z,6.60
2023-03-26T02:50:27.371Z,9.13
2023-03-26T02:52:56.814Z,11.43
2023-03-26T02:55:26.394Z,11.32
2023-03-26T02:57:56.616Z,9.75
2023-03-26T03:00:26.243Z,7.25
2023-03-26T03:02:58.188Z,7.35
2023-03-26T03:05:29.009Z,9.68
2023-03-26T03:07:58.324Z,10.52
2023-03-26T03:10:32.858Z,9.35
2023-03-26T03:13:02.329Z,8.55
2023-03-26T03:15:31.752Z,8.10
2023-03-26T03:18:02.561Z,8.15
2023-03-26T03:20:35.373Z,6.88
2023-03-26T03:23:05.097Z,5.55
2023-03-26T03:25:34.497Z,8.80
2023-03-26T03:28:03.852Z,8.65
2023-03-26T03:30:33.128Z,8.55
2023-03-26T03:33:04.374Z,6.80
2023-03-26T03:35:34.282Z,5.88
2023-03-26T03:38:03.700Z,5.32
2023-03-26T03:40:33.021Z,7.50
2023-03-26T03:43:02.375Z,5.95
2023-03-26T03:45:31.664Z,6.07
2023-03-26T03:51:16.557Z,7.35
2023-03-26T03:53:46.358Z,7.53
2023-03-26T03:56:17.714Z,10.70
2023-03-26T03:58:49.932Z,12.23
2023-03-26T04:01:23.005Z,6.50
2023-03-26T04:03:52.586Z,8.05
2023-03-26T04:06:25.461Z,9.75
2023-03-26T04:11:24.029Z,8.63
2023-03-26T04:13:53.591Z,5.88
2023-03-26T04:16:23.127Z,9.05
2023-03-26T04:18:52.474Z,8.68
2023-03-26T04:21:24.512Z,4.80
2023-03-26T04:23:54.439Z,9.77
2023-03-26T04:26:24.413Z,6.65
2023-03-26T04:28:58.019Z,9.30
2023-03-26T04:31:30.622Z,6.75
2023-03-26T04:34:08.773Z,5.65
2023-03-26T04:36:40.895Z,3.15
2023-03-26T04:39:15.050Z,2.65
2023-03-26T04:41:44.366Z,6.10
2023-03-26T04:44:15.798Z,2.17
2023-03-26T04:46:45.472Z,4.50
2023-03-26T04:49:14.855Z,3.65
2023-03-26T04:51:47.083Z,4.82
2023-03-26T04:54:19.548Z,3.97
2023-03-26T04:56:54.398Z,8.73
2023-03-26T04:59:30.422Z,10.45
2023-03-26T05:02:00.358Z,55.50
2023-03-26T05:04:30.859Z,14.65
2023-03-26T05:07:02.421Z,5.00
2023-03-26T05:09:32.042Z,4.05
2023-03-26T05:12:01.422Z,2.30
2023-03-26T05:14:30.818Z,3.65
2023-03-26T05:17:00.263Z,1.40
2023-03-26T05:19:29.598Z,7.43
2023-03-26T05:22:00.332Z,2.90
2023-03-26T05:24:29.669Z,1.55
2023-03-26T05:26:59.016Z,0.40
2023-03-26T05:29:28.596Z,0.45
2023-03-26T05:31:58.039Z,1.90
2023-03-26T05:34:27.344Z,0.10
2023-03-26T05:36:57.666Z,6.93
2023-03-26T05:39:30.115Z,18.50
2023-03-26T05:41:59.451Z,3.08
2023-03-26T05:44:28.891Z,0.22
2023-03-26T05:46:58.224Z,2.85
2023-03-26T05:49:27.881Z,3.72
2023-03-26T05:51:57.213Z,0.43
2023-03-26T05:54:28.259Z,0.82
2023-03-26T05:56:57.743Z,1.58
2023-03-26T05:59:27.292Z,7.90
2023-03-26T06:01:56.673Z,14.55
2023-03-26T06:04:26.109Z,5.05
2023-03-26T06:06:57.253Z,1.60
2023-03-26T06:09:28.112Z,0.60
2023-03-26T06:11:57.324Z,20.00
2023-03-26T06:14:26.750Z,2.85
2023-03-26T06:16:56.181Z,1.88
2023-03-26T06:19:25.990Z,1.75
2023-03-26T06:21:55.343Z,0.10
2023-03-26T06:24:24.694Z,0.20
2023-03-26T06:26:55.508Z,0.20
2023-03-26T06:29:24.928Z,0.17
2023-03-26T06:31:54.296Z,0.20
2023-03-26T06:34:23.651Z,2.10
2023-03-26T06:36:53.340Z,1.35
2023-03-26T06:39:23.298Z,0.20
2023-03-26T06:41:54.133Z,0.10
2023-03-26T06:44:23.397Z,0.40
2023-03-26T06:46:52.988Z,0.10
2023-03-26T06:51:16.560Z,0.20
2023-03-26T06:53:45.966Z,0.30
2023-03-26T06:56:15.276Z,0.20
2023-03-26T06:58:44.638Z,0.10
2023-03-26T07:01:14.132Z,0.20
2023-03-26T07:03:43.469Z,2.50
2023-03-26T07:06:14.339Z,0.20
2023-03-26T07:08:43.713Z,0.10
2023-03-26T07:11:13.182Z,1.38
2023-03-26T07:13:46.076Z,0.45
2023-03-26T07:16:15.882Z,4.28
2023-03-26T07:18:45.376Z,0.50
2023-03-26T07:21:17.577Z,0.50
2023-03-26T07:23:47.996Z,0.20
2023-03-26T07:26:30.769Z,0.20
2023-03-26T07:29:06.215Z,0.10
2023-03-26T07:31:47.440Z,0.20
2023-03-26T07:34:34.029Z,0.20
2023-03-26T07:37:13.663Z,0.10
2023-03-26T07:39:57.831Z,0.30
2023-03-26T07:42:44.743Z,0.40
2023-03-26T07:45:26.006Z,0.10
2023-03-26T07:47:57.302Z,20.30
2023-03-26T07:50:27.963Z,2.13
2023-03-26T07:52:59.805Z,0.30
2023-03-26T07:55:29.882Z,0.10
2023-03-26T07:58:15.352Z,3.13
2023-03-26T08:00:50.541Z,0.45
2023-03-26T08:03:38.420Z,0.10
2023-03-26T08:06:17.043Z,1.48
2023-03-26T08:08:58.428Z,0.20
2023-03-26T08:11:39.481Z,0.20
2023-03-26T08:14:24.873Z,0.25
2023-03-26T08:17:00.300Z,0.85
2023-03-26T08:19:45.841Z,0.13
2023-03-26T08:22:26.503Z,4.63
2023-03-26T08:25:21.749Z,0.28
2023-03-26T08:28:18.919Z,0.00
2023-03-26T08:30:48.670Z,0.10
2023-03-26T08:33:21.653Z,0.22
2023-03-26T08:35:51.816Z,0.17
2023-03-26T08:38:22.741Z,0.30
2023-03-26T08:41:36.949Z,0.75
2023-03-26T08:45:19.224Z,0.30
2023-03-26T08:48:51.828Z,0.00
2023-03-26T08:52:30.698Z,0.80
2023-03-26T08:55:35.287Z,0.20
2023-03-26T08:58:52.149Z,0.32
2023-03-26T09:02:04.971Z,1.70
2023-03-26T09:05:21.574Z,0.68
2023-03-26T09:09:00.571Z,0.10
2023-03-26T09:12:42.762Z,0.10
2023-03-26T09:15:53.120Z,0.00
2023-03-26T09:19:17.826Z,0.10
2023-03-26T09:23:00.129Z,0.10
2023-03-26T09:25:58.216Z,4.32
2023-03-26T09:29:26.193Z,0.00
2023-03-26T09:32:49.585Z,0.40
2023-03-26T09:35:54.197Z,0.08
2023-03-26T09:38:49.672Z,3.20
2023-03-26T09:41:23.087Z,0.10
2023-03-26T09:44:43.704Z,0.10
2023-03-26T09:47:38.933Z,0.15
2023-03-26T09:51:43.645Z,0.20
2023-03-26T09:54:46.693Z,0.00
2023-03-26T10:00:18.775Z,0.47
2023-03-26T10:03:21.319Z,0.10
2023-03-26T10:06:04.368Z,0.10
2023-03-26T10:08:52.428Z,0.00
2023-03-26T10:11:33.807Z,0.00
2023-03-26T10:14:14.286Z,0.35
2023-03-26T10:17:01.591Z,7.53
2023-03-26T10:19:48.660Z,0.00
2023-03-26T10:22:47.202Z,0.90
2023-03-26T10:25:52.481Z,0.20
2023-03-26T10:28:54.320Z,1.42
2023-03-26T10:31:41.892Z,0.00
2023-03-26T10:34:33.068Z,0.10
2023-03-26T10:37:14.811Z,0.73
2023-03-26T10:40:16.382Z,2.33
2023-03-26T10:43:16.269Z,1.23
2023-03-26T10:46:20.329Z,0.00
2023-03-26T10:49:22.142Z,1.15
2023-03-26T10:51:56.629Z,2.22
2023-03-26T10:54:41.490Z,1.85
2023-03-26T10:57:36.031Z,0.00
2023-03-26T11:00:23.538Z,0.10
2023-03-26T11:03:20.402Z,0.10
2023-03-26T11:06:00.965Z,0.10
2023-03-26T11:08:41.594Z,2.13
2023-03-26T11:11:23.441Z,4.78
2023-03-26T11:14:02.375Z,5.63
2023-03-26T11:16:47.806Z,0.00
2023-03-26T11:19:25.556Z,0.10
2023-03-26T11:22:04.173Z,0.00
2023-03-26T11:25:19.534Z,0.30
2023-03-26T11:28:12.222Z,0.00
2023-03-26T11:30:50.175Z,0.03
2023-03-26T11:33:26.247Z,0.00
2023-03-26T11:36:08.413Z,0.10
2023-03-26T11:38:43.878Z,0.10
2023-03-26T11:41:22.979Z,0.40
2023-03-26T11:43:57.101Z,0.40
2023-03-26T11:46:28.968Z,0.20
2023-03-26T11:49:01.777Z,0.10
2023-03-26T11:51:35.135Z,0.10
2023-03-26T11:54:06.011Z,0.10
2023-03-26T11:56:39.184Z,0.00
2023-03-26T11:59:14.364Z,0.10
2023-03-26T12:01:51.255Z,0.00
2023-03-26T12:04:30.710Z,0.00
2023-03-26T12:07:11.295Z,0.00
2023-03-26T12:09:50.872Z,0.00
2023-03-26T12:12:21.236Z,0.35
2023-03-26T12:14:50.995Z,1.08
2023-03-26T12:17:32.055Z,3.40
2023-03-26T12:20:07.776Z,1.23
2023-03-26T12:22:43.571Z,15.93
2023-03-26T12:25:20.594Z,4.50
2023-03-26T12:27:53.004Z,0.30
2023-03-26T12:32:57.516Z,0.32
2023-03-26T12:35:36.828Z,4.93
2023-03-26T12:38:29.320Z,3.80
2023-03-26T12:42:36.596Z,0.00
2023-03-26T12:44:55.268Z,0.10
2023-03-26T12:47:59.725Z,0.10
2023-03-26T12:51:30.196Z,0.10
2023-03-26T12:54:20.126Z,0.00
2023-03-26T12:57:12.773Z,0.00
2023-03-26T13:00:00.454Z,0.00
2023-03-26T13:03:01.392Z,0.00
2023-03-26T13:05:45.053Z,0.00
2023-03-26T13:08:57.676Z,0.00
2023-03-26T13:11:38.631Z,0.10
2023-03-26T13:14:36.912Z,0.10
2023-03-26T13:17:14.700Z,0.00
2023-03-26T13:19:54.729Z,0.10
2023-03-26T13:22:32.880Z,0.10
2023-03-26T13:25:23.703Z,0.00
2023-03-26T13:28:03.416Z,0.10
2023-03-26T13:30:41.718Z,0.10
2023-03-26T13:33:38.372Z,0.40
2023-03-26T13:36:23.689Z,0.00
2023-03-26T13:39:14.288Z,0.20
2023-03-26T13:42:04.414Z,0.57
2023-03-26T13:44:47.546Z,0.00
2023-03-26T13:47:21.333Z,0.10
2023-03-26T13:49:56.887Z,1.65
2023-03-26T13:52:31.772Z,0.30
2023-03-26T13:55:20.117Z,0.10
2023-03-26T13:57:59.544Z,0.20
2023-03-26T14:00:38.281Z,0.40
2023-03-26T14:03:17.966Z,0.20
2023-03-26T14:05:50.196Z,0.10
2023-03-26T14:08:26.279Z,0.10
2023-03-26T14:11:06.469Z,0.00
2023-03-26T14:13:45.251Z,0.30
2023-03-26T14:16:20.197Z,0.55
2023-03-26T14:18:56.337Z,4.63
2023-03-26T14:21:49.189Z,0.60
2023-03-26T14:28:28.666Z,0.00
2023-03-26T14:31:19.810Z,0.95
2023-03-26T14:34:12.879Z,0.20
2023-03-26T14:37:07.438Z,0.00
2023-03-26T14:40:14.985Z,0.00
2023-03-26T14:42:55.980Z,0.00
2023-03-26T14:45:53.782Z,0.00
2023-03-26T14:48:49.513Z,0.00
2023-03-26T14:51:44.378Z,0.20
2023-03-26T14:54:18.969Z,0.00
2023-03-26T14:57:13.828Z,0.00
2023-03-26T15:00:28.913Z,0.00
2023-03-26T15:04:00.980Z,0.00
2023-03-26T15:07:15.798Z,0.00
2023-03-26T15:10:29.965Z,0.15
2023-03-26T15:13:39.574Z,0.10
2023-03-26T15:16:28.432Z,0.10
2023-03-26T15:19:56.701Z,0.10
2023-03-26T15:23:24.750Z,0.00
2023-03-26T15:26:45.644Z,0.00
2023-03-26T15:30:17.552Z,0.00
2023-03-26T15:33:47.457Z,0.00
2023-03-26T15:37:02.631Z,0.00
2023-03-26T15:40:08.188Z,0.00
2023-03-26T15:42:54.981Z,0.10
2023-03-26T15:45:38.106Z,1.15
2023-03-26T15:51:47.290Z,0.25
2023-03-26T15:54:30.056Z,0.00
2023-03-26T15:57:20.190Z,0.00
2023-03-26T16:00:15.552Z,0.00
2023-03-26T16:03:00.908Z,0.00
2023-03-26T16:06:02.462Z,0.00
2023-03-26T16:08:46.993Z,0.00
2023-03-26T16:11:16.969Z,0.10
2023-03-26T16:13:52.173Z,0.43
2023-03-26T16:16:56.283Z,0.30
2023-03-26T16:19:58.943Z,0.10
2023-03-26T16:22:56.307Z,0.55
2023-03-26T16:25:34.248Z,0.00
2023-03-26T16:28:33.757Z,0.10
2023-03-26T16:31:38.092Z,0.80
2023-03-26T16:34:31.732Z,0.10
2023-03-26T16:37:01.994Z,0.10
2023-03-26T16:39:49.466Z,1.08
2023-03-26T16:42:38.687Z,1.45
2023-03-26T16:45:24.444Z,2.53
2023-03-26T16:48:03.455Z,1.70
2023-03-26T16:50:46.408Z,0.50
2023-03-26T16:56:05.472Z,10.90
2023-03-26T16:58:53.988Z,7.28
2023-03-26T17:01:36.720Z,3.15
2023-03-26T17:07:15.244Z,5.47
2023-03-26T17:10:00.745Z,2.97
2023-03-26T17:12:38.635Z,6.90
2023-03-26T17:15:29.696Z,4.88
2023-03-26T17:18:37.519Z,3.92
2023-03-26T17:21:16.708Z,1.92
2023-03-26T17:24:15.553Z,0.60
2023-03-26T17:26:57.759Z,0.77
2023-03-26T17:29:35.571Z,0.40
2023-03-26T17:32:11.845Z,0.40
2023-03-26T17:34:57.690Z,0.57
2023-03-26T17:37:45.887Z,1.27
2023-03-26T17:40:54.798Z,2.53
2023-03-26T17:43:45.407Z,2.13
2023-03-26T17:46:35.714Z,2.75
2023-03-26T17:49:16.569Z,2.17
2023-03-26T17:51:52.972Z,1.52
2023-03-26T17:54:28.676Z,1.35
2023-03-26T17:57:04.053Z,2.13
2023-03-26T17:59:35.887Z,0.80
2023-03-26T18:02:09.435Z,1.08
2023-03-26T18:07:58.191Z,0.97
2023-03-26T18:10:48.206Z,7.28
2023-03-26T18:14:18.662Z,7.20
2023-03-26T18:16:50.755Z,1.90
2023-03-26T18:19:23.056Z,3.55
2023-03-26T18:21:57.037Z,3.67
2023-03-26T18:24:31.509Z,1.60
2023-03-26T18:27:04.868Z,2.38
2023-03-26T18:29:36.605Z,2.90
2023-03-26T18:32:23.034Z,2.28
2023-03-26T18:34:58.399Z,1.17
2023-03-26T18:37:33.709Z,0.50
2023-03-26T18:40:12.177Z,1.23
2023-03-26T18:42:45.457Z,1.42
2023-03-26T18:45:27.070Z,1.10
2023-03-26T18:51:23.136Z,0.60
2023-03-26T18:53:55.608Z,0.95
2023-03-26T18:56:35.354Z,0.43
2023-03-26T18:59:28.455Z,1.35
2023-03-26T19:02:00.141Z,0.70
2023-03-26T19:04:33.689Z,0.50
2023-03-26T19:07:06.812Z,0.20
2023-03-26T19:09:36.476Z,0.70
2023-03-26T19:12:09.972Z,0.70
2023-03-26T19:14:57.370Z,0.60
2023-03-26T19:17:31.721Z,0.40
2023-03-26T19:20:01.452Z,1.95
2023-03-26T19:22:33.176Z,0.35
2023-03-26T19:25:05.608Z,0.55
2023-03-26T19:27:38.642Z,0.40
2023-03-26T19:30:11.553Z,0.60
2023-03-26T19:32:40.821Z,0.28
2023-03-26T19:35:24.485Z,0.38
2023-03-26T19:37:58.491Z,0.20
2023-03-26T19:40:30.349Z,0.25
2023-03-26T19:43:00.576Z,0.17
2023-03-26T19:45:31.090Z,0.10
2023-03-26T19:48:14.381Z,0.35
2023-03-26T19:50:55.413Z,0.20
2023-03-26T19:53:33.958Z,0.20
2023-03-26T19:56:14.703Z,0.10
2023-03-26T19:58:45.153Z,0.20
2023-03-26T20:01:19.957Z,0.10
2023-03-26T20:03:52.992Z,0.13
2023-03-26T20:06:41.755Z,0.10
2023-03-26T20:12:01.409Z,0.10
2023-03-26T20:14:32.830Z,0.25
2023-03-26T20:17:02.456Z,0.85
2023-03-26T20:19:32.014Z,0.10
2023-03-26T20:22:01.561Z,0.13
2023-03-26T20:24:33.728Z,0.17
2023-03-26T20:27:03.191Z,0.00
2023-03-26T20:29:33.148Z,0.10
2023-03-26T20:32:03.940Z,0.17
2023-03-26T20:34:33.780Z,0.00
2023-03-26T20:37:03.179Z,0.10
2023-03-26T20:39:33.971Z,0.10
2023-03-26T20:42:03.333Z,0.10
2023-03-26T20:44:32.781Z,0.03
2023-03-26T20:47:02.186Z,0.10
2023-03-26T20:49:32.600Z,0.10
2023-03-26T20:52:02.230Z,0.00
2023-03-26T20:54:33.335Z,0.05
2023-03-26T20:57:02.590Z,0.10
2023-03-26T20:59:32.670Z,0.00
2023-03-26T21:02:02.134Z,0.00
2023-03-26T21:04:32.351Z,0.00
2023-03-26T21:07:10.902Z,0.00
2023-03-26T21:09:49.449Z,0.00
2023-03-26T21:12:29.696Z,0.00
2023-03-26T21:15:00.528Z,0.00
2023-03-26T21:17:32.289Z,0.00
2023-03-26T21:20:11.964Z,0.00
2023-03-26T21:22:49.005Z,0.00
2023-03-26T21:25:35.289Z,0.00
2023-03-26T21:28:35.733Z,0.00
2023-03-26T21:31:18.697Z,0.10
2023-03-26T21:33:49.821Z,0.00
2023-03-26T21:36:21.582Z,0.03
2023-03-26T21:38:54.808Z,0.08
2023-03-26T21:41:41.398Z,0.00
2023-03-26T21:44:11.148Z,0.00
2023-03-26T21:46:44.365Z,0.00
2023-03-26T21:51:19.102Z,0.00
2023-03-26T21:53:50.264Z,0.10
2023-03-26T21:56:34.374Z,0.00
2023-03-26T21:59:15.114Z,0.10
2023-03-26T22:01:51.365Z,0.03
2023-03-26T22:04:30.917Z,0.00
2023-03-26T22:07:06.871Z,0.00
2023-03-26T22:09:36.894Z,0.00
2023-03-26T22:12:07.246Z,0.00
2023-03-26T22:14:36.475Z,0.00
2023-03-26T22:17:06.352Z,0.00
2023-03-26T22:19:36.103Z,0.00
2023-03-26T22:22:06.995Z,0.00
2023-03-26T22:24:36.277Z,0.10
2023-03-26T22:27:05.875Z,0.10
2023-03-26T22:29:35.416Z,0.00
2023-03-26T22:32:04.880Z,0.00
2023-03-26T22:34:35.182Z,0.00
2023-03-26T22:37:06.840Z,0.00
2023-03-26T22:39:36.352Z,0.08
2023-03-26T22:42:06.174Z,0.00
2023-03-26T22:44:35.789Z,0.00
2023-03-26T22:47:05.213Z,0.00
2023-03-26T22:49:34.666Z,0.00
2023-03-26T22:52:05.808Z,0.00
2023-03-26T22:54:36.645Z,0.00
2023-03-26T22:57:06.118Z,0.00
2023-03-26T22:59:35.454Z,0.15
2023-03-26T23:02:04.757Z,0.00
2023-03-26T23:04:34.338Z,0.00
2023-03-26T23:07:05.542Z,0.00
2023-03-26T23:09:35.060Z,0.00
2023-03-26T23:12:04.493Z,0.00
2023-03-26T23:14:34.068Z,0.00
2023-03-26T23:17:03.847Z,0.00
2023-03-26T23:19:34.272Z,0.00
2023-03-26T23:22:03.643Z,0.00
2023-03-26T23:24:34.450Z,0.00
2023-03-26T23:27:03.852Z,0.00
2023-03-26T23:29:33.762Z,0.00
2023-03-26T23:32:24.616Z,0.00
2023-03-26T23:34:55.995Z,0.00
2023-03-26T23:37:25.654Z,0.10
2023-03-26T23:39:56.484Z,0.00
2023-03-26T23:42:28.586Z,0.00
2023-03-26T23:44:59.034Z,0.00
2023-03-26T23:47:34.780Z,0.00
2023-03-26T23:50:05.537Z,0.00
2023-03-26T23:52:34.906Z,0.00
2023-03-26T23:55:06.411Z,0.00
2023-03-26T23:57:37.216Z,0.00
